sensor_id;sensor_type;location;lat;lon;timestamp;pressure;altitude;pressure_sealevel;temperature;humidity
26865;BME280;40618;51.166;10.322;2023-05-11T00:01:45;97152.31;;;12.86;76.35
26865;BME280;40618;51.166;10.322;2023-05-11T00:04:11;97161.66;;;12.91;76.32
26865;BME280;40618;51.166;10.322;2023-05-11T00:06:37;97153.00;;;12.90;76.20
26865;BME280;40618;51.166;10.322;2023-05-11T00:09:03;97159.91;;;12.91;76.53
26865;BME280;40618;51.166;10.322;2023-05-11T00:11:29;97155.56;;;12.92;76.25
26865;BME280;40618;51.166;10.322;2023-05-11T00:13:55;97152.97;;;12.92;76.59
26865;BME280;40618;51.166;10.322;2023-05-11T00:16:20;97158.16;;;12.92;76.39
26865;BME280;40618;51.166;10.322;2023-05-11T00:18:46;97163.34;;;12.92;76.51
26865;BME280;40618;51.166;10.322;2023-05-11T00:21:13;97157.28;;;12.91;76.39
26865;BME280;40618;51.166;10.322;2023-05-11T00:23:38;97161.66;;;12.91;76.32
26865;BME280;40618;51.166;10.322;2023-05-11T00:26:04;97155.59;;;12.90;76.30
26865;BME280;40618;51.166;10.322;2023-05-11T00:28:29;97158.41;;;12.85;76.43
26865;BME280;40618;51.166;10.322;2023-05-11T00:30:56;97155.16;;;12.80;76.58
26865;BME280;40618;51.166;10.322;2023-05-11T00:33:21;97160.38;;;12.80;76.35
26865;BME280;40618;51.166;10.322;2023-05-11T00:35:47;97151.75;;;12.80;76.72
26865;BME280;40618;51.166;10.322;2023-05-11T00:38:14;97149.13;;;12.80;76.76
26865;BME280;40618;51.166;10.322;2023-05-11T00:40:39;97153.44;;;12.81;76.68
26865;BME280;40618;51.166;10.322;2023-05-11T00:43:05;97152.44;;;12.83;76.59
26865;BME280;40618;51.166;10.322;2023-05-11T00:45:31;97148.09;;;12.84;76.57
26865;BME280;40618;51.166;10.322;2023-05-11T00:47:57;97149.91;;;12.82;76.50
26865;BME280;40618;51.166;10.322;2023-05-11T00:50:24;97149.06;;;12.81;76.58
26865;BME280;40618;51.166;10.322;2023-05-11T00:52:49;97148.28;;;12.79;76.71
26865;BME280;40618;51.166;10.322;2023-05-11T00:55:18;97139.66;;;12.79;76.76
26865;BME280;40618;51.166;10.322;2023-05-11T00:57:45;97150.84;;;12.81;76.80
26865;BME280;40618;51.166;10.322;2023-05-11T01:00:11;97145.56;;;12.82;76.85
26865;BME280;40618;51.166;10.322;2023-05-11T01:02:38;97143.81;;;12.83;76.86
26865;BME280;40618;51.166;10.322;2023-05-11T01:05:05;97151.59;;;12.83;76.77
26865;BME280;40618;51.166;10.322;2023-05-11T01:13:29;97151.63;;;12.62;76.71
26865;BME280;40618;51.166;10.322;2023-05-11T01:16:14;97146.81;;;12.53;76.96
26865;BME280;40618;51.166;10.322;2023-05-11T01:18:51;97145.19;;;12.50;77.14
26865;BME280;40618;51.166;10.322;2023-05-11T01:21:29;97143.19;;;12.57;77.37
26865;BME280;40618;51.166;10.322;2023-05-11T01:24:11;97146.50;;;12.61;76.88
26865;BME280;40618;51.166;10.322;2023-05-11T01:32:45;97142.84;;;12.65;76.93
26865;BME280;40618;51.166;10.322;2023-05-11T01:35:20;97137.72;;;12.63;77.18
26865;BME280;40618;51.166;10.322;2023-05-11T01:37:51;97141.31;;;12.61;77.08
26865;BME280;40618;51.166;10.322;2023-05-11T01:40:22;97152.44;;;12.63;76.99
26865;BME280;40618;51.166;10.322;2023-05-11T01:43:04;97142.13;;;12.61;77.14
26865;BME280;40618;51.166;10.322;2023-05-11T01:45:39;97140.47;;;12.60;77.14
26865;BME280;40618;51.166;10.322;2023-05-11T01:48:17;97148.50;;;12.54;77.16
26865;BME280;40618;51.166;10.322;2023-05-11T01:50:47;97148.59;;;12.52;76.80
26865;BME280;40618;51.166;10.322;2023-05-11T01:53:16;97145.13;;;12.52;77.06
26865;BME280;40618;51.166;10.322;2023-05-11T01:55:44;97146.13;;;12.49;77.05
26865;BME280;40618;51.166;10.322;2023-05-11T01:58:13;97150.47;;;12.49;77.37
26865;BME280;40618;51.166;10.322;2023-05-11T02:00:42;97146.16;;;12.48;77.02
26865;BME280;40618;51.166;10.322;2023-05-11T02:03:09;97147.03;;;12.48;77.26
26865;BME280;40618;51.166;10.322;2023-05-11T02:05:35;97150.38;;;12.50;77.17
26865;BME280;40618;51.166;10.322;2023-05-11T02:08:04;97149.47;;;12.51;77.16
26865;BME280;40618;51.166;10.322;2023-05-11T02:10:31;97159.88;;;12.51;77.12
26865;BME280;40618;51.166;10.322;2023-05-11T02:12:59;97150.59;;;12.46;77.15
26865;BME280;40618;51.166;10.322;2023-05-11T02:15:27;97148.19;;;12.41;77.15
26865;BME280;40618;51.166;10.322;2023-05-11T02:17:55;97147.41;;;12.39;77.14
26865;BME280;40618;51.166;10.322;2023-05-11T02:20:23;97149.19;;;12.39;77.30
26865;BME280;40618;51.166;10.322;2023-05-11T02:22:50;97141.44;;;12.37;76.95
26865;BME280;40618;51.166;10.322;2023-05-11T02:25:18;97148.31;;;12.38;77.28
26865;BME280;40618;51.166;10.322;2023-05-11T02:27:45;97138.84;;;12.37;77.24
26865;BME280;40618;51.166;10.322;2023-05-11T02:30:11;97148.31;;;12.38;77.38
26865;BME280;40618;51.166;10.322;2023-05-11T02:32:39;97145.72;;;12.38;77.31
26865;BME280;40618;51.166;10.322;2023-05-11T02:35:16;97144.88;;;12.38;77.33
26865;BME280;40618;51.166;10.322;2023-05-11T02:37:47;97140.59;;;12.36;77.35
26865;BME280;40618;51.166;10.322;2023-05-11T02:40:17;97146.66;;;12.37;77.46
26865;BME280;40618;51.166;10.322;2023-05-11T02:42:48;97144.81;;;12.39;77.59
26865;BME280;40618;51.166;10.322;2023-05-11T02:45:19;97144.06;;;12.37;77.29
26865;BME280;40618;51.166;10.322;2023-05-11T02:47:49;97144.94;;;12.36;77.38
26865;BME280;40618;51.166;10.322;2023-05-11T02:50:18;97144.06;;;12.37;77.28
26865;BME280;40618;51.166;10.322;2023-05-11T02:52:47;97146.69;;;12.35;77.35
26865;BME280;40618;51.166;10.322;2023-05-11T02:55:15;97142.44;;;12.34;77.29
26865;BME280;40618;51.166;10.322;2023-05-11T02:57:43;97140.72;;;12.33;77.54
26865;BME280;40618;51.166;10.322;2023-05-11T03:00:10;97145.09;;;12.33;77.56
26865;BME280;40618;51.166;10.322;2023-05-11T03:02:37;97145.13;;;12.31;77.20
26865;BME280;40618;51.166;10.322;2023-05-11T03:05:03;97149.63;;;12.28;77.50
26865;BME280;40618;51.166;10.322;2023-05-11T03:07:30;97138.44;;;12.26;77.22
26865;BME280;40618;51.166;10.322;2023-05-11T03:09:58;97148.81;;;12.26;77.55
26865;BME280;40618;51.166;10.322;2023-05-11T03:12:24;97141.19;;;12.23;77.47
26865;BME280;40618;51.166;10.322;2023-05-11T03:14:57;97144.66;;;12.22;77.56
26865;BME280;40618;51.166;10.322;2023-05-11T03:17:26;97140.44;;;12.19;77.26
26865;BME280;40618;51.166;10.322;2023-05-11T03:19:54;97143.00;;;12.21;77.42
26865;BME280;40618;51.166;10.322;2023-05-11T03:22:21;97138.72;;;12.19;77.19
26865;BME280;40618;51.166;10.322;2023-05-11T03:24:47;97140.34;;;12.22;77.39
26865;BME280;40618;51.166;10.322;2023-05-11T03:27:14;97142.88;;;12.24;77.49
26865;BME280;40618;51.166;10.322;2023-05-11T03:29:42;97137.63;;;12.25;77.48
26865;BME280;40618;51.166;10.322;2023-05-11T03:32:09;97143.63;;;12.26;77.45
26865;BME280;40618;51.166;10.322;2023-05-11T03:34:36;97140.34;;;12.22;77.25
26865;BME280;40618;51.166;10.322;2023-05-11T03:37:05;97132.66;;;12.19;77.33
26865;BME280;40618;51.166;10.322;2023-05-11T03:39:32;97139.75;;;12.15;77.29
26865;BME280;40618;51.166;10.322;2023-05-11T03:42:02;97136.28;;;12.15;77.40
26865;BME280;40618;51.166;10.322;2023-05-11T03:44:30;97139.75;;;12.15;77.66
26865;BME280;40618;51.166;10.322;2023-05-11T03:46:58;97128.56;;;12.13;77.79
26865;BME280;40618;51.166;10.322;2023-05-11T03:49:25;97130.19;;;12.16;77.70
26865;BME280;40618;51.166;10.322;2023-05-11T03:51:52;97131.03;;;12.16;77.39
26865;BME280;40618;51.166;10.322;2023-05-11T03:54:19;97125.06;;;12.14;77.43
26865;BME280;40618;51.166;10.322;2023-05-11T03:56:45;97123.38;;;12.13;77.52
26865;BME280;40618;51.166;10.322;2023-05-11T03:59:14;97137.16;;;12.15;77.73
26865;BME280;40618;51.166;10.322;2023-05-11T04:01:41;97130.19;;;12.16;77.56
26865;BME280;40618;51.166;10.322;2023-05-11T04:04:07;97131.84;;;12.18;77.85
26865;BME280;40618;51.166;10.322;2023-05-11T04:06:33;97127.47;;;12.19;77.67
26865;BME280;40618;51.166;10.322;2023-05-11T04:08:59;97129.16;;;12.20;77.67
26865;BME280;40618;51.166;10.322;2023-05-11T04:11:24;97124.84;;;12.21;77.94
26865;BME280;40618;51.166;10.322;2023-05-11T04:13:51;97126.56;;;12.20;77.82
26865;BME280;40618;51.166;10.322;2023-05-11T04:16:17;97130.03;;;12.21;77.64
26865;BME280;40618;51.166;10.322;2023-05-11T04:18:43;97127.44;;;12.21;77.85
26865;BME280;40618;51.166;10.322;2023-05-11T04:21:08;97125.75;;;12.19;77.47
26865;BME280;40618;51.166;10.322;2023-05-11T04:23:34;97128.34;;;12.19;77.62
26865;BME280;40618;51.166;10.322;2023-05-11T04:26:00;97133.63;;;12.16;77.77
26865;BME280;40618;51.166;10.322;2023-05-11T04:28:26;97134.56;;;12.15;77.75
26865;BME280;40618;51.166;10.322;2023-05-11T04:30:56;97131.97;;;12.15;77.74
26865;BME280;40618;51.166;10.322;2023-05-11T04:33:22;97137.91;;;12.17;77.48
26865;BME280;40618;51.166;10.322;2023-05-11T04:35:49;97136.19;;;12.18;77.67
26865;BME280;40618;51.166;10.322;2023-05-11T04:38:16;97141.31;;;12.19;77.86
26865;BME280;40618;51.166;10.322;2023-05-11T04:40:42;97141.31;;;12.19;77.75
26865;BME280;40618;51.166;10.322;2023-05-11T04:43:07;97142.16;;;12.20;77.40
26865;BME280;40618;51.166;10.322;2023-05-11T04:45:33;97137.91;;;12.17;77.66
26865;BME280;40618;51.166;10.322;2023-05-11T04:47:59;97141.41;;;12.16;77.39
26865;BME280;40618;51.166;10.322;2023-05-11T04:50:24;97140.78;;;12.11;77.51
26865;BME280;40618;51.166;10.322;2023-05-11T04:52:50;97139.84;;;12.12;77.98
26865;BME280;40618;51.166;10.322;2023-05-11T04:55:15;97142.41;;;12.14;77.83
26865;BME280;40618;51.166;10.322;2023-05-11T04:57:41;97139.75;;;12.15;77.66
26865;BME280;40618;51.166;10.322;2023-05-11T05:00:07;97144.88;;;12.17;77.93
26865;BME280;40618;51.166;10.322;2023-05-11T05:02:34;97140.41;;;12.21;77.97
26865;BME280;40618;51.166;10.322;2023-05-11T05:04:59;97137.69;;;12.24;77.87
26865;BME280;40618;51.166;10.322;2023-05-11T05:07:25;97145.34;;;12.27;77.79
26865;BME280;40618;51.166;10.322;2023-05-11T05:09:51;97136.06;;;12.21;77.62
26865;BME280;40618;51.166;10.322;2023-05-11T05:12:17;97137.09;;;12.17;78.25
26865;BME280;40618;51.166;10.322;2023-05-11T05:14:42;97143.97;;;12.18;77.91
26865;BME280;40618;51.166;10.322;2023-05-11T05:17:08;97145.53;;;12.22;77.94
26865;BME280;40618;51.166;10.322;2023-05-11T05:19:34;97145.41;;;12.25;77.93
26865;BME280;40618;51.166;10.322;2023-05-11T05:21:59;97144.50;;;12.26;77.94
26865;BME280;40618;51.166;10.322;2023-05-11T05:24:25;97144.81;;;12.18;77.91
26865;BME280;40618;51.166;10.322;2023-05-11T05:26:51;97148.19;;;12.21;77.64
26865;BME280;40618;51.166;10.322;2023-05-11T05:29:16;97153.25;;;12.24;77.95
26865;BME280;40618;51.166;10.322;2023-05-11T05:31:42;97152.34;;;12.25;78.09
26865;BME280;40618;51.166;10.322;2023-05-11T05:34:07;97148.91;;;12.24;78.17
26865;BME280;40618;51.166;10.322;2023-05-11T05:36:33;97142.88;;;12.24;78.10
26865;BME280;40618;51.166;10.322;2023-05-11T05:38:58;97144.59;;;12.23;78.18
26865;BME280;40618;51.166;10.322;2023-05-11T05:41:24;97141.31;;;12.19;78.10
26865;BME280;40618;51.166;10.322;2023-05-11T05:43:50;97154.47;;;12.15;77.87
26865;BME280;40618;51.166;10.322;2023-05-11T05:46:16;97151.09;;;12.13;78.18
26865;BME280;40618;51.166;10.322;2023-05-11T05:48:42;97157.91;;;12.15;78.34
26865;BME280;40618;51.166;10.322;2023-05-11T05:51:07;97155.25;;;12.17;78.27
26865;BME280;40618;51.166;10.322;2023-05-11T05:53:33;97157.13;;;12.13;78.31
26865;BME280;40618;51.166;10.322;2023-05-11T05:55:58;97156.16;;;12.16;78.45
26865;BME280;40618;51.166;10.322;2023-05-11T05:58:24;97164.59;;;12.21;78.56
26865;BME280;40618;51.166;10.322;2023-05-11T06:00:50;97164.47;;;12.24;78.42
26865;BME280;40618;51.166;10.322;2023-05-11T06:03:16;97161.75;;;12.27;78.56
26865;BME280;40618;51.166;10.322;2023-05-11T06:05:42;97167.66;;;12.31;78.50
26865;BME280;40618;51.166;10.322;2023-05-11T06:08:07;97166.91;;;12.29;78.16
26865;BME280;40618;51.166;10.322;2023-05-11T06:10:33;97169.94;;;12.18;78.21
26865;BME280;40618;51.166;10.322;2023-05-11T06:12:58;97171.59;;;12.19;78.77
26865;BME280;40618;51.166;10.322;2023-05-11T06:15:24;97167.28;;;12.19;78.72
26865;BME280;40618;51.166;10.322;2023-05-11T06:17:50;97169.66;;;12.24;78.66
26865;BME280;40618;51.166;10.322;2023-05-11T06:20:15;97168.56;;;12.30;78.77
26865;BME280;40618;51.166;10.322;2023-05-11T06:22:41;97170.13;;;12.34;78.71
26865;BME280;40618;51.166;10.322;2023-05-11T06:25:07;97163.97;;;12.36;78.74
26865;BME280;40618;51.166;10.322;2023-05-11T06:27:32;97168.19;;;12.39;78.88
26865;BME280;40618;51.166;10.322;2023-05-11T06:29:58;97165.78;;;12.34;78.61
26865;BME280;40618;51.166;10.322;2023-05-11T06:32:23;97162.41;;;12.32;78.92
26865;BME280;40618;51.166;10.322;2023-05-11T06:34:49;97167.34;;;12.39;79.02
26865;BME280;40618;51.166;10.322;2023-05-11T06:37:15;97164.47;;;12.45;79.10
26865;BME280;40618;51.166;10.322;2023-05-11T06:39:48;97163.44;;;12.49;78.97
26865;BME280;40618;51.166;10.322;2023-05-11T06:42:13;97165.28;;;12.47;78.71
26865;BME280;40618;51.166;10.322;2023-05-11T06:44:39;97157.78;;;12.39;78.86
26865;BME280;40618;51.166;10.322;2023-05-11T06:47:08;97164.84;;;12.35;78.99
26865;BME280;40618;51.166;10.322;2023-05-11T06:49:34;97162.34;;;12.34;79.23
26865;BME280;40618;51.166;10.322;2023-05-11T06:52:00;97162.25;;;12.35;79.23
26865;BME280;40618;51.166;10.322;2023-05-11T06:54:25;97160.38;;;12.39;79.23
26865;BME280;40618;51.166;10.322;2023-05-11T06:56:51;97166.38;;;12.41;79.23
26865;BME280;40618;51.166;10.322;2023-05-11T06:59:16;97163.13;;;12.36;78.89
26865;BME280;40618;51.166;10.322;2023-05-11T07:01:42;97169.28;;;12.33;79.52
26865;BME280;40618;51.166;10.322;2023-05-11T07:04:08;97163.28;;;12.31;79.35
26865;BME280;40618;51.166;10.322;2023-05-11T07:06:33;97164.94;;;12.34;79.45
26865;BME280;40618;51.166;10.322;2023-05-11T07:09:00;97167.34;;;12.39;79.33
26865;BME280;40618;51.166;10.322;2023-05-11T07:11:27;97164.41;;;12.46;79.55
26865;BME280;40618;51.166;10.322;2023-05-11T07:13:54;97170.41;;;12.48;79.22
26865;BME280;40618;51.166;10.322;2023-05-11T07:16:20;97173.69;;;12.52;79.53
26865;BME280;40618;51.166;10.322;2023-05-11T07:18:47;97165.97;;;12.50;79.37
26865;BME280;40618;51.166;10.322;2023-05-11T07:21:13;97165.97;;;12.50;79.43
26865;BME280;40618;51.166;10.322;2023-05-11T07:23:38;97163.44;;;12.49;79.42
26865;BME280;40618;51.166;10.322;2023-05-11T07:26:04;97166.03;;;12.49;79.65
26865;BME280;40618;51.166;10.322;2023-05-11T07:28:36;97163.44;;;12.49;79.53
26865;BME280;40618;51.166;10.322;2023-05-11T07:31:02;97168.69;;;12.47;79.54
26865;BME280;40618;51.166;10.322;2023-05-11T07:33:28;97168.63;;;12.49;79.60
26865;BME280;40618;51.166;10.322;2023-05-11T07:35:54;97161.63;;;12.51;79.79
26865;BME280;40618;51.166;10.322;2023-05-11T07:38:19;97167.53;;;12.55;79.90
26865;BME280;40618;51.166;10.322;2023-05-11T07:40:45;97165.66;;;12.58;79.78
26865;BME280;40618;51.166;10.322;2023-05-11T07:43:11;97170.09;;;12.56;79.80
26865;BME280;40618;51.166;10.322;2023-05-11T07:45:38;97176.75;;;12.62;80.05
26865;BME280;40618;51.166;10.322;2023-05-11T07:48:04;97167.94;;;12.66;80.10
26865;BME280;40618;51.166;10.322;2023-05-11T07:50:30;97163.50;;;12.68;80.05
26865;BME280;40618;51.166;10.322;2023-05-11T07:52:56;97158.94;;;12.73;80.08
26865;BME280;40618;51.166;10.322;2023-05-11T07:55:22;97164.66;;;12.81;79.98
26865;BME280;40618;51.166;10.322;2023-05-11T07:57:53;97166.22;;;12.85;80.03
26865;BME280;40618;51.166;10.322;2023-05-11T08:00:19;97165.25;;;12.88;80.00
26865;BME280;40618;51.166;10.322;2023-05-11T08:02:45;97166.06;;;12.89;79.98
26865;BME280;40618;51.166;10.322;2023-05-11T08:05:10;97159.06;;;12.91;80.05
26865;BME280;40618;51.166;10.322;2023-05-11T08:07:36;97172.00;;;12.92;79.81
26865;BME280;40618;51.166;10.322;2023-05-11T08:10:02;97164.25;;;12.91;80.03
26865;BME280;40618;51.166;10.322;2023-05-11T08:12:28;97160.88;;;12.89;80.00
26865;BME280;40618;51.166;10.322;2023-05-11T08:14:53;97165.50;;;12.82;80.03
26865;BME280;40618;51.166;10.322;2023-05-11T08:17:19;97164.81;;;12.78;79.93
26865;BME280;40618;51.166;10.322;2023-05-11T08:19:45;97166.47;;;12.79;80.33
26865;BME280;40618;51.166;10.322;2023-05-11T08:22:10;97171.66;;;12.79;79.89
26865;BME280;40618;51.166;10.322;2023-05-11T08:24:36;97171.72;;;12.78;80.41
26865;BME280;40618;51.166;10.322;2023-05-11T08:27:02;97175.19;;;12.78;80.11
26865;BME280;40618;51.166;10.322;2023-05-11T08:29:29;97176.09;;;12.77;80.13
26865;BME280;40618;51.166;10.322;2023-05-11T08:31:55;97177.84;;;12.77;79.92
26865;BME280;40618;51.166;10.322;2023-05-11T08:34:21;97173.72;;;12.73;79.89
26865;BME280;40618;51.166;10.322;2023-05-11T08:36:47;97174.53;;;12.73;79.93
26865;BME280;40618;51.166;10.322;2023-05-11T08:39:13;97169.06;;;12.79;80.36
26865;BME280;40618;51.166;10.322;2023-05-11T08:41:39;97180.03;;;12.86;80.28
26865;BME280;40618;51.166;10.322;2023-05-11T08:44:05;97170.38;;;12.90;79.95
26865;BME280;40618;51.166;10.322;2023-05-11T08:46:34;97174.44;;;12.95;80.17
26865;BME280;40618;51.166;10.322;2023-05-11T08:49:00;97169.00;;;13.01;80.15
26865;BME280;40618;51.166;10.322;2023-05-11T08:51:26;97169.59;;;13.07;80.23
26865;BME280;40618;51.166;10.322;2023-05-11T08:53:53;97173.81;;;13.09;79.75
26865;BME280;40618;51.166;10.322;2023-05-11T08:56:22;97165.94;;;13.11;80.10
26865;BME280;40618;51.166;10.322;2023-05-11T08:58:53;97166.81;;;13.11;80.12
26865;BME280;40618;51.166;10.322;2023-05-11T09:01:21;97169.50;;;13.10;80.24
26865;BME280;40618;51.166;10.322;2023-05-11T09:03:48;97169.25;;;13.14;80.14
26865;BME280;40618;51.166;10.322;2023-05-11T09:06:15;97172.84;;;13.12;79.88
26865;BME280;40618;51.166;10.322;2023-05-11T09:08:42;97167.66;;;13.12;79.76
26865;BME280;40618;51.166;10.322;2023-05-11T09:11:09;97170.53;;;13.06;80.06
26865;BME280;40618;51.166;10.322;2023-05-11T09:13:36;97169.50;;;13.10;80.28
26865;BME280;40618;51.166;10.322;2023-05-11T09:16:01;97160.50;;;13.17;80.47
26865;BME280;40618;51.166;10.322;2023-05-11T09:18:27;97162.88;;;13.21;80.35
26865;BME280;40618;51.166;10.322;2023-05-11T09:20:53;97159.19;;;13.27;80.36
26865;BME280;40618;51.166;10.322;2023-05-11T09:23:24;97158.03;;;13.33;80.34
26865;BME280;40618;51.166;10.322;2023-05-11T09:25:53;97157.03;;;13.37;80.37
26865;BME280;40618;51.166;10.322;2023-05-11T09:28:25;97163.69;;;13.43;80.19
26865;BME280;40618;51.166;10.322;2023-05-11T09:30:52;97156.56;;;13.46;80.03
26865;BME280;40618;51.166;10.322;2023-05-11T09:33:24;97159.81;;;13.51;80.40
26865;BME280;40618;51.166;10.322;2023-05-11T09:35:50;97166.44;;;13.59;80.39
26865;BME280;40618;51.166;10.322;2023-05-11T09:38:16;97160.16;;;13.63;80.29
26865;BME280;40618;51.166;10.322;2023-05-11T09:40:52;97160.66;;;13.71;79.93
26865;BME280;40618;51.166;10.322;2023-05-11T09:45:54;97161.25;;;13.76;79.62
26865;BME280;40618;51.166;10.322;2023-05-11T09:48:27;97159.44;;;13.78;79.56
26865;BME280;40618;51.166;10.322;2023-05-11T09:53:37;97157.66;;;13.79;79.66
26865;BME280;40618;51.166;10.322;2023-05-11T09:56:05;97158.56;;;13.78;79.80
26865;BME280;40618;51.166;10.322;2023-05-11T09:58:47;97160.56;;;13.73;79.42
26865;BME280;40618;51.166;10.322;2023-05-11T10:01:16;97158.09;;;13.69;79.68
26865;BME280;40618;51.166;10.322;2023-05-11T10:04:03;97153.75;;;13.70;79.68
26865;BME280;40618;51.166;10.322;2023-05-11T10:06:42;97159.88;;;13.69;79.69
26865;BME280;40618;51.166;10.322;2023-05-11T10:09:08;97159.94;;;13.67;79.55
26865;BME280;40618;51.166;10.322;2023-05-11T10:11:36;97154.75;;;13.67;79.93
26865;BME280;40618;51.166;10.322;2023-05-11T10:14:05;97151.91;;;13.72;79.47
26865;BME280;40618;51.166;10.322;2023-05-11T10:16:31;97151.00;;;13.73;79.59
26865;BME280;40618;51.166;10.322;2023-05-11T10:18:59;97149.31;;;13.72;79.43
26865;BME280;40618;51.166;10.322;2023-05-11T10:21:26;97151.22;;;13.68;79.79
26865;BME280;40618;51.166;10.322;2023-05-11T10:23:52;97144.03;;;13.74;79.67
26865;BME280;40618;51.166;10.322;2023-05-11T10:26:20;97142.91;;;13.79;79.58
26865;BME280;40618;51.166;10.322;2023-05-11T10:28:46;97139.25;;;13.83;79.65
26865;BME280;40618;51.166;10.322;2023-05-11T10:31:12;97142.41;;;13.90;79.74
26865;BME280;40618;51.166;10.322;2023-05-11T10:33:39;97139.63;;;13.93;79.62
26865;BME280;40618;51.166;10.322;2023-05-11T10:36:07;97137.59;;;14.00;79.72
26865;BME280;40618;51.166;10.322;2023-05-11T10:38:33;97139.03;;;14.05;79.33
26865;BME280;40618;51.166;10.322;2023-05-11T10:41:06;97137.88;;;14.11;79.70
26865;BME280;40618;51.166;10.322;2023-05-11T10:47:36;97135.28;;;14.11;79.27
26865;BME280;40618;51.166;10.322;2023-05-11T10:57:11;97134.91;;;14.19;78.76
26865;BME280;40618;51.166;10.322;2023-05-11T11:00:09;97139.25;;;14.18;78.92
26865;BME280;40618;51.166;10.322;2023-05-11T11:02:38;97136.66;;;14.18;78.59
26865;BME280;40618;51.166;10.322;2023-05-11T11:05:04;97133.06;;;14.21;78.92
26865;BME280;40618;51.166;10.322;2023-05-11T11:07:56;97136.38;;;14.25;78.74
26865;BME280;40618;51.166;10.322;2023-05-11T11:10:32;97135.28;;;14.29;78.92
26865;BME280;40618;51.166;10.322;2023-05-11T11:13:07;97136.75;;;14.34;78.91
26865;BME280;40618;51.166;10.322;2023-05-11T11:18:19;97141.25;;;14.31;78.48
26865;BME280;40618;51.166;10.322;2023-05-11T11:20:47;97137.13;;;14.27;78.73
26865;BME280;40618;51.166;10.322;2023-05-11T11:26:08;97139.88;;;14.24;78.96
26865;BME280;40618;51.166;10.322;2023-05-11T11:31:26;97130.25;;;14.26;78.92
26865;BME280;40618;51.166;10.322;2023-05-11T11:33:55;97133.75;;;14.25;79.10
26865;BME280;40618;51.166;10.322;2023-05-11T11:39:51;97140.94;;;14.19;79.21
26865;BME280;40618;51.166;10.322;2023-05-11T11:45:24;97139.25;;;14.18;78.82
26865;BME280;40618;51.166;10.322;2023-05-11T11:48:08;97142.25;;;14.11;78.65
26865;BME280;40618;51.166;10.322;2023-05-11T11:50:34;97138.78;;;14.10;79.02
26865;BME280;40618;51.166;10.322;2023-05-11T11:53:00;97138.78;;;14.10;78.81
26865;BME280;40618;51.166;10.322;2023-05-11T11:55:47;97143.25;;;14.08;79.15
26865;BME280;40618;51.166;10.322;2023-05-11T12:01:06;97145.84;;;14.08;79.42
26865;BME280;40618;51.166;10.322;2023-05-11T12:03:36;97139.88;;;14.06;78.74
26865;BME280;40618;51.166;10.322;2023-05-11T12:06:04;97145.97;;;14.05;79.04
26865;BME280;40618;51.166;10.322;2023-05-11T12:08:30;97142.38;;;14.08;79.37
26865;BME280;40618;51.166;10.322;2023-05-11T12:10:57;97143.31;;;14.07;79.01
26865;BME280;40618;51.166;10.322;2023-05-11T12:13:26;97140.94;;;14.02;78.93
26865;BME280;40618;51.166;10.322;2023-05-11T12:16:16;97145.66;;;13.94;79.14
26865;BME280;40618;51.166;10.322;2023-05-11T12:18:54;97153.00;;;13.85;79.20
26865;BME280;40618;51.166;10.322;2023-05-11T12:21:25;97143.75;;;13.80;79.04
26865;BME280;40618;51.166;10.322;2023-05-11T12:23:54;97147.00;;;13.66;78.98
26865;BME280;40618;51.166;10.322;2023-05-11T12:26:25;97147.44;;;13.57;79.39
26865;BME280;40618;51.166;10.322;2023-05-11T12:29:06;97141.31;;;13.58;79.58
26865;BME280;40618;51.166;10.322;2023-05-11T12:31:38;97143.78;;;13.61;79.49
26865;BME280;40618;51.166;10.322;2023-05-11T12:34:18;97142.94;;;13.60;79.40
26865;BME280;40618;51.166;10.322;2023-05-11T12:36:47;97136.03;;;13.59;79.56
26865;BME280;40618;51.166;10.322;2023-05-11T12:39:24;97146.31;;;13.62;79.48
26865;BME280;40618;51.166;10.322;2023-05-11T12:41:53;97140.25;;;13.62;80.00
26865;BME280;40618;51.166;10.322;2023-05-11T12:44:21;97136.28;;;13.54;79.82
26865;BME280;40618;51.166;10.322;2023-05-11T12:46:49;97136.19;;;13.56;80.12
26865;BME280;40618;51.166;10.322;2023-05-11T12:49:19;97134.34;;;13.58;79.81
26865;BME280;40618;51.166;10.322;2023-05-11T12:52:01;97132.47;;;13.62;80.21
26865;BME280;40618;51.166;10.322;2023-05-11T12:57:07;97134.56;;;13.73;80.09
26865;BME280;40618;51.166;10.322;2023-05-11T12:59:46;97129.28;;;13.74;80.13
26865;BME280;40618;51.166;10.322;2023-05-11T13:02:15;97141.66;;;13.69;79.91
26865;BME280;40618;51.166;10.322;2023-05-11T13:04:43;97129.00;;;13.61;79.75
26865;BME280;40618;51.166;10.322;2023-05-11T13:07:11;97135.34;;;13.56;79.88
26865;BME280;40618;51.166;10.322;2023-05-11T13:09:38;97131.34;;;13.48;79.87
26865;BME280;40618;51.166;10.322;2023-05-11T13:12:14;97130.44;;;13.49;79.79
26865;BME280;40618;51.166;10.322;2023-05-11T13:14:42;97124.53;;;13.46;80.04
26865;BME280;40618;51.166;10.322;2023-05-11T13:17:09;97123.69;;;13.45;80.14
26865;BME280;40618;51.166;10.322;2023-05-11T13:19:35;97129.66;;;13.47;80.13
26865;BME280;40618;51.166;10.322;2023-05-11T13:22:02;97125.09;;;13.52;80.37
26865;BME280;40618;51.166;10.322;2023-05-11T13:24:28;97128.25;;;13.59;80.37
26865;BME280;40618;51.166;10.322;2023-05-11T13:26:54;97128.94;;;13.63;80.05
26865;BME280;40618;51.166;10.322;2023-05-11T13:29:22;97120.22;;;13.64;80.21
26865;BME280;40618;51.166;10.322;2023-05-11T13:31:50;97121.00;;;13.66;80.31
26865;BME280;40618;51.166;10.322;2023-05-11T13:34:18;97114.72;;;13.70;80.65
26865;BME280;40618;51.166;10.322;2023-05-11T13:36:45;97116.09;;;13.77;80.56
26865;BME280;40618;51.166;10.322;2023-05-11T13:39:11;97114.97;;;13.83;80.44
26865;BME280;40618;51.166;10.322;2023-05-11T13:41:37;97107.78;;;13.88;80.45
26865;BME280;40618;51.166;10.322;2023-05-11T13:44:03;97112.63;;;13.96;80.46